Airfield :
LOGIN :

Register | Disclaimer

   EN    FR    IT 

 










Legend :    VFR   Marginal VFR   IFR   Intensive IFR   Very Intensive IFR
Visi :
Ceiling :
>= 8 km
>= 3000ft
5 to 8 km
1000 to 3000 ft
1500m to 5 km
500 to 1000 ft
800 to 1500m
200 to 500 ft
< 800m
< 200 ft
Symbols :   Thunderstorms  Fog  Heavy snow  Heavy precipitations  Wind > 20 kt
SIGMETs :     Misc.  Thunderstorms  Icing  Turbulence  Mountain Waves  Volcanic Ashes







- Airport Elevation : 1966 ft
- IATA code : SGE


EDGS - Siegerland

CURRENT METAR :
  • 121520Z 26006KT 210V310 6000 FEW003 BKN004 M00/M01 Q1008

EXPIRED METARs :
  • 121450Z 28006KT 220V350 9999 3000SE -SHSN SCT004 BKN006 M00/M01 Q1008
  • 121420Z 27010KT 9999 -SHSN SCT004 BKN007 M00/M01 Q1007
  • 121350Z 25012KT 7000 -SHSN FEW003 SCT007 BKN011 M00/M01 Q1007
  • 121320Z 25012KT 9999 VCSH FEW004 SCT007 BKN026 M00/M01 Q1006
  • 121250Z 25012KT 9999 VCSH SCT006 BKN011 M00/M01 Q1006

TAF TAF EDGS
Valid from the 12 at 15:00 until the 13 at 00:00 UTC


121400Z 1215/1224 24010KT 9999 SCT007 BKN020
TEMPO 1215/1220 3500 -SHSN BKN007TCU
PROB30
TEMPO 1215/1218 25015KT 1200 SHSN BKN004 BKN007CB
BECMG 1220/1222 BKN007
TEMPO 1222/1224 BKN004
No reported NOTAMs for that airfield.



MET'MAP, your aeronautical weather chart ! - Copyright ORBIFLY December 2007 - Disclaimer

ORBIFLY MET'MAP TEAM :

Programming & Development : Alexandra Zaïnal
Concept & Development : Baudouin d'Aumeries
Co-Development & Prog : Marc-Olivier Méhu
Technical & hardware support : Manuel Goepfert

Contact : metmap@orbifly.com




SOURCES & CREDITS :

   NOAA